Time;durP1;ratioP1;P1;durP2;ratioP2;P2;SDS_P1;SDS_P2;PMS_P1;PMS_P2;Temp;Humidity;BMP_temperature;BMP_pressure;BME280_temperature;BME280_humidity;BME280_pressure;Samples;Min_cycle;Max_cycle;Signal;HPM_P1;HPM_P2
2022/02/11 00:00:50;;;;;;;13.35;5.10;;;;;;;2.64;95.53;101983.31;5002053;28;20037;-75
2022/02/11 00:06:11;;;;;;;11.73;4.78;;;;;;;2.68;95.96;101980.50;5000433;28;20030;-76
2022/02/11 00:08:35;;;;;;;9.95;4.68;;;;;;;2.59;95.83;101977.56;5001901;28;20046;-76
2022/02/11 00:11:00;;;;;;;9.55;4.65;;;;;;;2.56;96.05;101975.97;5006165;28;20049;-76
2022/02/11 00:13:27;;;;;;;12.75;4.70;;;;;;;2.45;96.13;101985.91;5027335;28;20034;-76
2022/02/11 00:15:54;;;;;;;9.38;4.93;;;;;;;2.41;96.49;101990.38;4992904;28;20044;-76
2022/02/11 00:18:20;;;;;;;10.77;4.75;;;;;;;2.36;96.51;101989.75;5000893;28;20025;-76
2022/02/11 00:20:51;;;;;;;10.48;5.03;;;;;;;2.33;96.52;101998.41;5021421;28;20135;-76
2022/02/11 00:23:18;;;;;;;14.80;4.78;;;;;;;2.28;96.86;101989.28;4996669;28;20033;-75
2022/02/11 00:25:53;;;;;;;12.18;5.00;;;;;;;2.31;97.19;101992.53;4989328;28;20033;-76
2022/02/11 00:32:00;;;;;;;14.15;4.93;;;;;;;2.40;96.43;101985.31;5006683;28;20076;-76
2022/02/11 00:33:45;;;;;;;8.90;4.85;;;;;;;2.31;96.15;101991.69;5001456;28;20053;-76
2022/02/11 00:36:13;;;;;;;8.70;5.35;;;;;;;2.25;96.51;101985.16;5003259;28;20037;-76
2022/02/11 00:42:28;;;;;;;9.30;4.85;;;;;;;2.14;97.10;101988.19;5006724;28;20029;-77
2022/02/11 00:47:21;;;;;;;14.07;5.70;;;;;;;2.07;97.49;101998.81;5007008;28;20044;-76
2022/02/11 01:04:25;;;;;;;13.32;6.95;;;;;;;2.04;97.32;101991.28;5030805;28;20049;-75
2022/02/11 01:06:19;;;;;;;12.73;7.25;;;;;;;1.99;97.99;101988.94;5009921;28;20040;-75
2022/02/11 01:08:45;;;;;;;17.92;7.60;;;;;;;1.93;97.97;101979.81;5005188;28;20403;-75
2022/02/11 01:11:17;;;;;;;13.43;7.57;;;;;;;2.01;98.14;101971.78;5004104;28;20041;-75
2022/02/11 01:13:42;;;;;;;14.00;8.07;;;;;;;2.09;97.74;101976.53;5021080;28;20116;-74
2022/02/11 01:16:13;;;;;;;13.68;7.53;;;;;;;1.97;97.68;101966.88;5026871;28;20082;-75
2022/02/11 01:18:43;;;;;;;17.27;7.63;;;;;;;1.92;98.11;101977.31;5021119;28;20041;-76
2022/02/11 01:21:15;;;;;;;23.27;10.15;;;;;;;1.97;98.05;101975.38;5021748;28;20044;-75
2022/02/11 01:23:54;;;;;;;18.05;8.02;;;;;;;1.88;98.08;101976.63;5019900;28;20441;-74
2022/02/11 01:26:48;;;;;;;15.10;7.38;;;;;;;1.87;98.11;101969.88;5004321;28;20057;-76
2022/02/11 01:34:34;;;;;;;15.10;8.00;;;;;;;1.83;98.36;101982.84;5000237;28;20495;-75
2022/02/11 01:45:18;;;;;;;19.05;8.52;;;;;;;1.81;97.82;101994.88;5004832;28;20060;-75
2022/02/11 01:52:59;;;;;;;15.63;7.93;;;;;;;1.75;97.82;101990.88;5024214;28;20037;-75
2022/02/11 02:09:03;;;;;;;17.23;8.73;;;;;;;1.59;98.30;101987.38;5023934;28;20033;-76
2022/02/11 02:12:26;;;;;;;18.88;8.48;;;;;;;1.61;98.58;101981.28;5025573;28;20042;-76
2022/02/11 02:17:37;;;;;;;20.67;9.65;;;;;;;1.59;98.81;101974.59;5011504;28;20037;-75
2022/02/11 02:25:10;;;;;;;18.02;8.40;;;;;;;1.59;98.81;101977.97;5028267;28;20464;-74
2022/02/11 02:33:15;;;;;;;21.58;10.13;;;;;;;1.53;98.40;101973.97;5027340;28;20044;-76
2022/02/11 02:56:55;;;;;;;25.85;11.00;;;;;;;1.38;99.47;101987.41;5025301;28;20075;-74
2022/02/11 03:15:27;;;;;;;27.92;11.82;;;;;;;1.39;99.07;101978.03;5034869;28;20148;-76
2022/02/11 03:51:06;;;;;;;52.13;21.85;;;;;;;1.59;98.77;102010.38;5024197;28;20061;-76
2022/02/11 04:08:28;;;;;;;30.17;10.55;;;;;;;1.78;98.76;102008.66;5005615;28;20424;-76
2022/02/11 04:55:54;;;;;;;27.65;9.65;;;;;;;2.12;98.21;102061.66;5005263;28;20041;-75
2022/02/11 05:01:04;;;;;;;33.78;8.75;;;;;;;2.10;98.04;102083.94;5025764;28;20546;-76
2022/02/11 05:03:30;;;;;;;25.75;9.45;;;;;;;2.09;98.04;102076.31;5003220;28;20087;-77
2022/02/11 05:05:55;;;;;;;27.90;9.27;;;;;;;2.09;98.70;102063.53;5027978;28;20088;-76
2022/02/11 05:08:23;;;;;;;27.88;8.38;;;;;;;2.17;97.86;102068.28;4992112;28;20033;-76
2022/02/11 05:10:52;;;;;;;29.98;8.13;;;;;;;2.19;97.91;102066.53;4996994;28;20061;-76
2022/02/11 05:13:18;;;;;;;20.65;7.72;;;;;;;2.19;97.84;102067.34;5006638;28;20102;-76
2022/02/11 05:15:44;;;;;;;26.13;8.00;;;;;;;2.23;98.04;102073.97;5027581;28;20025;-76
2022/02/11 05:18:09;;;;;;;28.48;8.13;;;;;;;2.26;98.11;102075.56;5002963;28;20411;-76
2022/02/11 05:20:36;;;;;;;25.55;8.20;;;;;;;2.29;98.17;102077.97;5025067;28;20029;-75
2022/02/11 05:23:19;;;;;;;25.73;8.02;;;;;;;2.25;97.68;102084.16;5011217;28;20087;-76
2022/02/11 05:25:45;;;;;;;23.48;8.23;;;;;;;2.39;97.79;102089.44;5031405;28;20483;-75
2022/02/11 05:28:11;;;;;;;22.95;7.05;;;;;;;2.33;97.72;102097.41;5007032;28;20040;-76
2022/02/11 05:30:37;;;;;;;24.55;7.07;;;;;;;2.44;97.17;102105.44;5007424;28;20124;-75
2022/02/11 05:33:04;;;;;;;25.83;7.10;;;;;;;2.52;97.19;102105.06;4999939;28;20036;-74
2022/02/11 05:35:30;;;;;;;26.38;9.13;;;;;;;2.45;97.30;102108.81;4993430;28;20033;-74
2022/02/11 05:37:55;;;;;;;31.33;8.15;;;;;;;2.44;97.27;102117.41;5011861;28;20503;-76
2022/02/11 05:40:21;;;;;;;24.15;8.25;;;;;;;2.39;97.83;102122.72;5006720;28;20064;-76
2022/02/11 05:42:47;;;;;;;26.70;8.07;;;;;;;2.41;98.36;102112.41;5007422;28;20136;-76
2022/02/11 05:45:12;;;;;;;39.03;14.65;;;;;;;2.55;98.67;102114.38;5029211;28;20136;-77
2022/02/11 05:47:38;;;;;;;30.70;8.57;;;;;;;2.56;98.19;102121.94;4992623;28;20033;-76
2022/02/11 05:50:04;;;;;;;28.40;9.05;;;;;;;2.55;98.31;102129.72;5021467;28;20036;-76
2022/02/11 05:52:30;;;;;;;26.52;8.30;;;;;;;2.50;98.42;102133.31;5011132;28;20649;-76
2022/02/11 05:54:56;;;;;;;29.15;7.60;;;;;;;2.60;98.48;102138.84;5029560;28;20048;-76
2022/02/11 05:57:21;;;;;;;34.75;6.80;;;;;;;2.62;97.98;102143.88;5002871;28;20488;-75
2022/02/11 05:59:47;;;;;;;22.30;6.93;;;;;;;2.65;98.03;102134.31;4991929;28;20053;-76
2022/02/11 06:02:12;;;;;;;20.35;6.35;;;;;;;2.79;97.60;102143.09;5026542;28;20037;-76
2022/02/11 06:04:39;;;;;;;23.02;6.13;;;;;;;2.77;97.72;102144.91;5029039;28;20134;-77
2022/02/11 06:07:04;;;;;;;21.35;5.10;;;;;;;2.73;97.51;102146.78;5011442;28;20046;-76
2022/02/11 06:09:30;;;;;;;22.45;5.95;;;;;;;2.76;97.22;102156.88;5027635;28;20554;-76
2022/02/11 06:11:55;;;;;;;18.88;5.95;;;;;;;2.82;97.25;102159.16;5003290;28;20904;-77
2022/02/11 06:14:21;;;;;;;22.98;6.32;;;;;;;2.79;96.88;102159.31;4991791;28;20064;-75
2022/02/11 06:16:46;;;;;;;22.50;5.32;;;;;;;2.77;97.08;102161.13;5032791;28;20092;-76
2022/02/11 06:19:12;;;;;;;38.25;6.65;;;;;;;2.80;97.19;102166.09;5015291;28;20040;-76
2022/02/11 06:21:37;;;;;;;15.93;5.28;;;;;;;2.90;97.28;102180.13;5014104;28;20038;-76
2022/02/11 06:24:03;;;;;;;27.77;6.32;;;;;;;2.95;96.92;102190.16;5028558;28;20033;-77
2022/02/11 06:26:29;;;;;;;18.02;6.00;;;;;;;2.80;96.88;102183.19;5027041;28;20214;-76
2022/02/11 06:28:57;;;;;;;33.80;6.15;;;;;;;2.80;97.83;102185.75;5039699;28;20380;-76
2022/02/11 06:31:23;;;;;;;20.25;4.95;;;;;;;2.93;97.37;102195.34;5013250;28;20034;-76
2022/02/11 06:33:49;;;;;;;28.00;5.93;;;;;;;2.98;97.51;102199.44;5034817;28;20399;-76
2022/02/11 06:36:14;;;;;;;20.02;6.35;;;;;;;2.96;96.97;102194.41;5008195;28;20541;-76
2022/02/11 06:38:40;;;;;;;21.55;5.47;;;;;;;2.94;97.33;102209.00;5011003;28;20037;-76
2022/02/11 06:41:06;;;;;;;30.85;5.53;;;;;;;2.89;97.43;102219.47;4993307;28;20305;-75
2022/02/11 06:43:32;;;;;;;21.90;5.93;;;;;;;2.75;98.05;102219.28;5008724;28;20129;-76
2022/02/11 06:45:58;;;;;;;22.55;6.13;;;;;;;2.96;97.42;102227.72;5029379;28;20052;-76
2022/02/11 06:48:24;;;;;;;30.58;5.97;;;;;;;2.93;97.50;102241.47;4999632;28;20128;-76
2022/02/11 06:50:54;;;;;;;25.10;5.75;;;;;;;3.08;96.83;102249.38;5011494;28;20045;-76
2022/02/11 06:53:20;;;;;;;41.15;6.88;;;;;;;3.01;96.65;102251.38;5028512;28;20029;-76
2022/02/11 06:55:46;;;;;;;24.80;5.13;;;;;;;2.98;96.94;102260.97;5015924;28;20519;-76
2022/02/11 06:58:12;;;;;;;30.80;5.05;;;;;;;2.92;96.56;102264.63;5024144;28;20044;-78
2022/02/11 07:00:45;;;;;;;44.22;5.88;;;;;;;2.89;96.60;102269.88;5035523;28;20025;-76
2022/02/11 07:03:10;;;;;;;;;;;;;;;2.94;96.96;102273.09;5002680;28;20099;-76
2022/02/11 07:05:37;;;;;;;26.23;6.13;;;;;;;2.86;97.04;102282.81;5029586;28;20239;-77
2022/02/11 07:08:03;;;;;;;25.85;4.60;;;;;;;2.97;96.57;102282.34;5011200;28;20555;-76
2022/02/11 07:10:29;;;;;;;26.83;4.70;;;;;;;2.98;96.24;102295.09;5013299;28;20147;-75
2022/02/11 07:12:54;;;;;;;23.67;4.38;;;;;;;2.91;95.98;102291.97;5027699;28;20038;-77
2022/02/11 07:15:20;;;;;;;25.45;4.38;;;;;;;2.96;95.58;102311.44;5005700;28;20041;-75
2022/02/11 07:17:45;;;;;;;22.13;3.92;;;;;;;3.05;95.54;102311.00;5010592;28;20083;-76
2022/02/11 07:20:11;;;;;;;24.67;4.10;;;;;;;2.98;95.31;102319.91;5028607;28;20416;-76
2022/02/11 07:22:38;;;;;;;19.30;4.93;;;;;;;3.03;95.31;102317.94;5011840;28;20068;-78
2022/02/11 07:25:05;;;;;;;28.58;4.25;;;;;;;3.10;95.02;102332.97;5009846;28;20042;-75
2022/02/11 07:27:31;;;;;;;33.15;5.22;;;;;;;3.04;95.21;102335.00;5027491;28;20064;-76
2022/02/11 07:29:56;;;;;;;26.70;4.35;;;;;;;3.07;95.17;102328.00;5018804;28;20494;-76
2022/02/11 07:32:22;;;;;;;24.20;3.95;;;;;;;3.03;95.52;102341.00;4991883;28;20729;-76
2022/02/11 07:34:47;;;;;;;24.15;4.20;;;;;;;3.09;95.39;102345.88;5022726;28;20519;-76
2022/02/11 07:37:13;;;;;;;22.23;3.92;;;;;;;3.09;95.58;102354.38;5008032;28;20435;-76
2022/02/11 07:39:38;;;;;;;20.90;4.82;;;;;;;3.11;95.61;102364.59;4988990;28;20384;-78
2022/02/11 07:42:04;;;;;;;27.20;3.42;;;;;;;3.06;95.60;102371.63;4993576;28;20029;-77
2022/02/11 07:44:29;;;;;;;21.63;3.15;;;;;;;3.17;95.20;102381.41;4991675;28;20619;-77
2022/02/11 07:46:55;;;;;;;24.70;4.07;;;;;;;3.12;95.39;102387.56;4997986;28;20028;-77
2022/02/11 07:49:20;;;;;;;28.60;4.07;;;;;;;3.07;95.81;102396.34;5024806;28;20025;-77
2022/02/11 07:51:46;;;;;;;28.75;3.13;;;;;;;3.19;95.20;102395.00;5004147;28;20037;-77
2022/02/11 07:54:12;;;;;;;25.65;3.65;;;;;;;3.19;95.07;102395.81;4990764;28;20029;-77
2022/02/11 07:56:38;;;;;;;24.05;3.50;;;;;;;3.29;95.15;102402.19;5008813;28;20554;-77
2022/02/11 07:59:04;;;;;;;25.63;2.72;;;;;;;3.26;94.76;102410.03;5024718;28;20033;-76
2022/02/11 08:01:29;;;;;;;18.48;3.17;;;;;;;3.41;93.73;102418.75;5000349;28;20090;-77
2022/02/11 08:03:56;;;;;;;31.45;4.60;;;;;;;3.24;93.23;102423.81;5010117;28;20033;-77
2022/02/11 08:06:21;;;;;;;26.30;3.85;;;;;;;3.28;92.81;102422.78;4994806;28;20447;-77
2022/02/11 08:08:47;;;;;;;24.20;3.08;;;;;;;3.40;92.70;102424.78;5010507;28;20030;-77
2022/02/11 08:11:12;;;;;;;26.40;3.63;;;;;;;3.41;92.30;102430.75;5010209;28;20033;-76
2022/02/11 08:13:38;;;;;;;19.70;2.85;;;;;;;3.44;92.15;102421.16;5023178;28;20063;-77
2022/02/11 08:16:06;;;;;;;25.75;3.15;;;;;;;3.47;92.64;102435.59;5007451;28;20025;-77
2022/02/11 08:18:31;;;;;;;20.88;2.63;;;;;;;3.48;92.76;102437.25;5024663;28;20041;-76
2022/02/11 08:20:57;;;;;;;32.60;4.10;;;;;;;3.57;92.20;102447.09;5024868;28;20033;-77
2022/02/11 08:23:24;;;;;;;20.40;3.53;;;;;;;3.55;91.97;102461.72;4992034;28;20044;-78
2022/02/11 08:25:50;;;;;;;29.13;3.75;;;;;;;3.55;91.99;102466.03;5011690;28;20041;-77
2022/02/11 08:28:15;;;;;;;28.50;4.35;;;;;;;3.65;92.24;102473.22;5007543;28;20034;-77
2022/02/11 08:30:42;;;;;;;24.98;4.50;;;;;;;3.79;90.89;102476.91;5009450;28;20041;-76
2022/02/11 08:33:07;;;;;;;28.67;3.25;;;;;;;3.82;90.27;102481.88;5009221;28;20509;-76
2022/02/11 08:35:33;;;;;;;37.30;3.25;;;;;;;4.11;88.96;102480.53;5021148;28;20041;-78
2022/02/11 08:37:59;;;;;;;18.05;2.72;;;;;;;4.27;87.07;102488.34;5009150;28;20033;-76
2022/02/11 08:40:24;;;;;;;27.05;3.03;;;;;;;4.65;85.66;102495.91;5008895;28;20083;-77
2022/02/11 08:42:51;;;;;;;25.33;2.88;;;;;;;4.85;84.36;102494.91;5007505;28;20045;-76
2022/02/11 08:45:17;;;;;;;21.17;2.75;;;;;;;4.92;81.89;102500.59;5008645;28;20037;-77
2022/02/11 08:47:42;;;;;;;20.95;3.25;;;;;;;5.04;81.52;102510.25;5024221;28;20080;-76
2022/02/11 08:50:08;;;;;;;17.90;4.38;;;;;;;4.77;82.11;102521.00;5023049;28;20033;-76
2022/02/11 08:52:35;;;;;;;18.33;3.20;;;;;;;4.84;80.50;102530.09;5009084;28;20067;-77
2022/02/11 08:55:00;;;;;;;22.13;2.88;;;;;;;5.10;80.63;102530.50;4992608;28;20047;-77
2022/02/11 08:57:29;;;;;;;27.05;2.70;;;;;;;5.21;78.87;102527.38;5009084;28;20480;-77
2022/02/11 08:59:54;;;;;;;28.25;3.30;;;;;;;5.36;78.63;102534.31;5003811;28;20223;-77
2022/02/11 09:02:20;;;;;;;20.95;2.95;;;;;;;5.41;77.34;102545.19;5023594;28;20403;-76
2022/02/11 09:04:45;;;;;;;16.20;2.38;;;;;;;5.50;76.90;102546.47;4995195;28;20095;-77
2022/02/11 09:07:11;;;;;;;17.90;3.50;;;;;;;5.52;76.57;102552.38;5007393;28;20021;-77
2022/02/11 09:09:38;;;;;;;28.73;2.65;;;;;;;5.17;76.68;102552.44;5006487;28;20076;-76
2022/02/11 09:12:03;;;;;;;19.02;2.50;;;;;;;5.26;77.00;102558.84;5024404;28;20121;-77
2022/02/11 09:14:29;;;;;;;20.58;2.30;;;;;;;5.12;77.20;102559.53;5005343;28;20116;-78
2022/02/11 09:16:54;;;;;;;18.95;3.17;;;;;;;5.16;77.13;102568.78;5005614;28;20037;-77
2022/02/11 09:19:22;;;;;;;15.32;2.80;;;;;;;5.18;76.99;102584.13;4991411;28;20045;-76
2022/02/11 09:21:47;;;;;;;23.25;2.97;;;;;;;5.05;78.03;102581.34;5006703;28;20029;-76
2022/02/11 09:24:13;;;;;;;17.88;2.45;;;;;;;5.06;78.45;102583.00;5035649;23;20060;-67
2022/02/11 09:26:38;;;;;;;19.27;2.28;;;;;;;5.13;77.39;102586.94;5044227;28;20495;-67
2022/02/11 09:29:04;;;;;;;25.08;2.35;;;;;;;5.04;77.53;102589.97;5062666;28;20032;-67
2022/02/11 09:31:30;;;;;;;15.07;2.47;;;;;;;5.11;77.03;102595.66;5059513;28;20072;-67
2022/02/11 09:34:03;;;;;;;21.15;3.15;;;;;;;4.96;76.95;102592.91;5028932;28;20078;-67
2022/02/11 09:36:30;;;;;;;;;;;;;;;4.91;77.80;102597.44;5043806;28;20409;-67
2022/02/11 09:38:55;;;;;;;24.58;3.15;;;;;;;4.94;77.39;102605.00;5062823;28;19924;-69
2022/02/11 09:41:23;;;;;;;17.80;3.75;;;;;;;4.88;76.40;102605.31;5061060;28;20105;-70
2022/02/11 09:43:49;;;;;;;19.45;3.13;;;;;;;4.91;77.73;102607.72;5027647;28;20398;-67
2022/02/11 09:46:15;;;;;;;16.67;3.13;;;;;;;4.87;77.86;102612.19;5020016;28;20036;-67
2022/02/11 09:48:40;;;;;;;30.92;3.47;;;;;;;4.85;77.28;102605.47;5059692;28;20308;-67
2022/02/11 09:51:06;;;;;;;23.23;2.83;;;;;;;4.85;76.72;102615.75;5060886;28;20040;-67
2022/02/11 09:53:32;;;;;;;25.80;3.28;;;;;;;4.80;76.77;102613.41;5054634;28;20037;-70
2022/02/11 09:55:58;;;;;;;23.05;2.85;;;;;;;4.71;76.55;102621.56;5059302;28;20610;-67
2022/02/11 09:58:24;;;;;;;16.80;2.17;;;;;;;4.67;76.50;102622.59;5055917;28;20116;-69
2022/02/11 10:00:52;;;;;;;22.77;3.05;;;;;;;4.67;75.93;102645.72;5042266;28;20477;-70
2022/02/11 10:03:20;;;;;;;20.00;2.63;;;;;;;4.79;76.96;102642.56;5043625;28;20390;-70
2022/02/11 10:05:47;;;;;;;23.02;2.60;;;;;;;4.85;76.18;102655.13;5041270;28;20064;-70
2022/02/11 10:08:15;;;;;;;17.05;2.40;;;;;;;4.81;77.03;102653.63;5057573;28;20040;-70
2022/02/11 10:10:49;;;;;;;21.20;3.90;;;;;;;4.66;77.07;102655.16;5060328;28;20123;-70
2022/02/11 10:13:17;;;;;;;17.40;2.80;;;;;;;4.74;77.42;102667.66;5042493;28;20057;-70
2022/02/11 10:15:48;;;;;;;12.50;2.10;;;;;;;4.91;76.43;102676.31;5034366;28;20036;-70
2022/02/11 10:18:18;;;;;;;20.35;2.80;;;;;;;4.86;76.08;102677.38;5059181;28;20040;-70
2022/02/11 10:20:53;;;;;;;22.40;2.60;;;;;;;4.79;75.98;102685.44;5043621;28;20051;-70
2022/02/11 10:23:23;;;;;;;23.63;3.58;;;;;;;4.73;76.74;102683.13;5061702;28;21266;-69
2022/02/11 10:25:52;;;;;;;16.35;2.88;;;;;;;4.75;76.50;102696.78;5055746;28;20032;-70
2022/02/11 10:28:24;;;;;;;33.38;3.63;;;;;;;4.79;77.38;102699.13;5059181;28;20090;-70
2022/02/11 10:31:15;;;;;;;24.13;3.05;;;;;;;4.80;77.44;102697.38;5041011;28;20060;-70
2022/02/11 10:33:52;;;;;;;18.98;2.08;;;;;;;4.97;77.01;102701.72;5062904;28;20127;-69
2022/02/11 10:36:22;;;;;;;24.25;3.03;;;;;;;4.85;74.56;102709.09;5059470;28;20202;-67
2022/02/11 10:39:01;;;;;;;17.08;2.95;;;;;;;4.79;75.57;102719.69;5045122;28;20039;-67
2022/02/11 10:41:27;;;;;;;26.45;3.88;;;;;;;4.92;75.77;102729.41;5044649;28;20029;-66
2022/02/11 10:44:04;;;;;;;28.50;3.05;;;;;;;5.02;75.50;102731.44;5041147;28;20402;-67
2022/02/11 10:46:35;;;;;;;24.08;3.10;;;;;;;5.15;75.38;102742.00;5061081;28;20040;-68
2022/02/11 10:49:01;;;;;;;22.58;3.80;;;;;;;5.38;75.32;102733.16;5060937;28;20681;-67
2022/02/11 10:51:26;;;;;;;24.80;3.92;;;;;;;5.34;72.84;102743.69;5059872;28;20024;-67
2022/02/11 10:53:52;;;;;;;26.50;3.72;;;;;;;5.30;73.33;102747.31;5063027;28;20571;-67
2022/02/11 10:56:17;;;;;;;16.00;2.33;;;;;;;5.19;72.93;102742.69;5046668;28;20040;-67
2022/02/11 10:58:52;;;;;;;20.90;3.22;;;;;;;5.17;71.54;102759.94;5047314;28;20036;-67
2022/02/11 11:01:18;;;;;;;20.00;2.72;;;;;;;5.09;71.43;102765.44;5062200;28;20036;-67
2022/02/11 11:03:45;;;;;;;18.70;2.70;;;;;;;5.12;71.20;102770.41;5063188;28;20040;-67
2022/02/11 11:06:13;;;;;;;28.85;2.88;;;;;;;5.05;70.67;102766.50;5027152;28;20111;-67
2022/02/11 11:08:39;;;;;;;26.35;3.03;;;;;;;5.03;71.60;102769.13;5031009;28;20029;-67
2022/02/11 11:11:08;;;;;;;29.90;3.47;;;;;;;5.15;71.42;102772.84;5045021;28;20047;-69
2022/02/11 11:13:37;;;;;;;22.75;2.65;;;;;;;5.29;70.46;102776.50;5062795;28;20064;-66
2022/02/11 11:16:06;;;;;;;20.55;2.63;;;;;;;5.32;70.26;102772.06;5043539;28;20025;-70
2022/02/11 11:18:32;;;;;;;20.63;3.10;;;;;;;5.26;67.88;102767.22;5063602;28;20071;-67
2022/02/11 11:20:59;;;;;;;19.88;2.28;;;;;;;5.29;66.59;102776.50;5057687;28;20024;-67
2022/02/11 11:23:28;;;;;;;23.27;2.80;;;;;;;5.29;67.20;102779.09;5062365;28;20036;-67
2022/02/11 11:26:04;;;;;;;14.10;2.38;;;;;;;5.32;68.12;102784.91;5041787;28;20033;-67
2022/02/11 11:28:50;;;;;;;18.95;3.13;;;;;;;5.34;68.85;102788.25;5061406;28;20039;-69
2022/02/11 11:31:23;;;;;;;16.83;2.28;;;;;;;5.46;69.46;102791.97;5064133;28;20033;-69
2022/02/11 11:33:49;;;;;;;31.50;2.80;;;;;;;5.44;67.13;102793.78;5062539;28;20032;-67
2022/02/11 11:36:17;;;;;;;26.95;2.72;;;;;;;5.43;66.77;102789.56;5046122;28;20032;-69
2022/02/11 11:38:47;;;;;;;18.95;2.45;;;;;;;5.28;66.84;102792.88;5065507;28;20048;-69
2022/02/11 11:41:20;;;;;;;20.17;3.55;;;;;;;5.41;66.07;102801.66;5042517;28;20043;-67
2022/02/11 11:43:45;;;;;;;;;;;;;;;5.41;64.78;102797.34;5063260;28;20028;-67
2022/02/11 11:46:14;;;;;;;21.48;2.97;;;;;;;5.29;63.42;102789.38;5027996;28;20328;-67
2022/02/11 11:49:03;;;;;;;23.55;2.58;;;;;;;5.22;64.60;102804.28;5053499;28;20029;-67
2022/02/11 11:51:36;;;;;;;12.93;2.35;;;;;;;5.13;63.66;102792.69;5059154;28;20052;-67
2022/02/11 11:54:21;;;;;;;25.05;2.78;;;;;;;5.01;61.69;102788.09;5061409;28;20064;-67
2022/02/11 11:56:52;;;;;;;16.45;2.47;;;;;;;4.94;62.98;102792.69;5042419;28;20135;-66
2022/02/11 11:59:40;;;;;;;18.58;2.25;;;;;;;5.03;62.97;102801.75;5056346;28;20032;-67
2022/02/11 12:02:20;;;;;;;12.50;2.15;;;;;;;5.14;61.79;102809.78;5059625;28;20040;-70
2022/02/11 12:04:56;;;;;;;13.25;1.90;;;;;;;5.18;61.40;102810.44;5043426;28;20676;-70
2022/02/11 12:07:35;;;;;;;17.48;2.20;;;;;;;5.43;60.80;102800.69;5059331;28;20036;-70
2022/02/11 12:10:03;;;;;;;17.42;2.67;;;;;;;5.46;60.54;102810.84;5055632;28;20039;-69
2022/02/11 12:12:31;;;;;;;16.98;2.22;;;;;;;5.52;61.55;102802.00;5039384;28;20070;-67
2022/02/11 12:14:59;;;;;;;18.35;3.00;;;;;;;5.60;60.47;102810.16;5060329;28;20040;-67
2022/02/11 12:17:25;;;;;;;21.15;2.22;;;;;;;5.85;59.21;102809.78;5062450;28;20040;-69
2022/02/11 12:19:53;;;;;;;16.63;2.22;;;;;;;5.93;60.56;102804.25;5042918;28;20369;-69
2022/02/11 12:22:20;;;;;;;17.10;2.38;;;;;;;5.91;58.96;102806.06;5047341;28;20032;-69
2022/02/11 12:27:35;;;;;;;19.67;3.28;;;;;;;5.92;59.75;102804.34;5063102;28;20032;-70
2022/02/11 12:30:19;;;;;;;20.92;2.65;;;;;;;5.97;59.33;102813.53;5041218;28;20842;-67
2022/02/11 12:32:56;;;;;;;17.17;2.13;;;;;;;5.92;59.26;102815.47;5064755;28;20049;-67
2022/02/11 12:35:27;;;;;;;28.20;2.80;;;;;;;6.06;59.80;102825.09;5044270;28;20097;-67
2022/02/11 12:37:54;;;;;;;20.00;2.85;;;;;;;5.98;59.84;102815.19;5020445;28;20043;-67
2022/02/11 12:40:27;;;;;;;17.55;2.15;;;;;;;5.81;57.66;102826.28;5036917;28;20032;-67
2022/02/11 12:43:10;;;;;;;20.58;3.42;;;;;;;5.65;57.37;102831.38;5044095;28;20068;-67
2022/02/11 12:45:37;;;;;;;24.83;2.55;;;;;;;5.59;57.75;102833.38;5051967;28;20502;-69
2022/02/11 12:48:05;;;;;;;14.52;2.05;;;;;;;5.67;59.65;102841.59;5021869;28;20733;-70
2022/02/11 12:50:53;;;;;;;22.23;2.15;;;;;;;5.62;60.60;102848.69;5064337;28;20036;-67
2022/02/11 12:53:20;;;;;;;17.02;2.08;;;;;;;5.50;59.98;102850.13;5059276;28;20044;-67
2022/02/11 12:55:56;;;;;;;19.05;3.90;;;;;;;5.31;59.11;102857.03;5054791;28;20035;-67
2022/02/11 12:58:21;;;;;;;27.60;3.20;;;;;;;5.37;58.59;102856.72;5034792;28;20073;-69
2022/02/11 13:00:49;;;;;;;19.80;2.35;;;;;;;5.18;58.23;102856.75;5056402;28;20047;-67
2022/02/11 13:03:17;;;;;;;24.73;2.63;;;;;;;5.26;60.10;102858.06;5042177;28;20064;-67
2022/02/11 13:05:45;;;;;;;23.45;1.80;;;;;;;5.35;58.50;102861.13;5062323;28;20250;-67
2022/02/11 13:08:26;;;;;;;14.73;2.08;;;;;;;5.42;59.07;102855.59;5062260;28;20042;-67
2022/02/11 13:11:02;;;;;;;15.23;2.22;;;;;;;5.58;55.71;102849.75;5059471;28;20039;-69
2022/02/11 13:13:29;;;;;;;14.00;2.22;;;;;;;5.60;56.83;102858.25;5057613;28;20526;-69
2022/02/11 13:15:56;;;;;;;11.27;2.10;;;;;;;5.58;56.89;102867.78;5057617;28;20044;-69
2022/02/11 13:18:24;;;;;;;15.77;2.38;;;;;;;5.70;55.45;102856.88;5042773;28;20790;-67
2022/02/11 13:21:10;;;;;;;13.63;1.83;;;;;;;5.67;54.22;102862.19;5039427;28;20033;-67
2022/02/11 13:23:36;;;;;;;13.70;1.67;;;;;;;5.63;53.96;102864.06;5056436;28;20036;-67
2022/02/11 13:26:12;;;;;;;13.05;1.63;;;;;;;5.63;54.46;102858.94;5053033;28;20040;-67
2022/02/11 13:28:46;;;;;;;11.93;2.22;;;;;;;5.75;53.97;102860.06;5039956;28;20036;-67
2022/02/11 13:31:11;;;;;;;14.43;1.55;;;;;;;5.85;52.82;102858.69;5038618;28;20155;-67
2022/02/11 13:33:37;;;;;;;15.00;1.55;;;;;;;5.90;53.72;102855.91;5052917;28;20033;-66
2022/02/11 13:36:06;;;;;;;14.95;2.05;;;;;;;5.94;54.80;102862.56;5060522;28;20122;-67
2022/02/11 13:38:33;;;;;;;14.10;1.17;;;;;;;5.89;52.03;102854.25;5061863;28;20032;-67
2022/02/11 13:41:08;;;;;;;13.27;2.28;;;;;;;5.94;50.21;102865.16;5043408;28;20071;-67
2022/02/11 13:43:50;;;;;;;14.07;1.52;;;;;;;5.94;52.11;102874.63;5052684;28;20049;-69
2022/02/11 13:46:24;;;;;;;15.98;2.22;;;;;;;5.82;51.11;102870.88;5057300;28;20546;-70
2022/02/11 13:48:52;;;;;;;10.73;1.80;;;;;;;5.81;51.93;102872.63;5055875;28;20496;-67
2022/02/11 13:51:18;;;;;;;10.07;2.35;;;;;;;5.77;51.99;102867.72;5063532;28;20032;-67
2022/02/11 13:53:52;;;;;;;11.88;1.83;;;;;;;5.88;51.98;102872.34;5041865;28;20044;-67
2022/02/11 13:56:32;;;;;;;12.30;1.90;;;;;;;6.01;51.56;102873.47;5042488;28;20047;-70
2022/02/11 13:59:12;;;;;;;10.65;1.65;;;;;;;6.04;52.18;102871.53;5040466;28;20041;-67
2022/02/11 14:01:41;;;;;;;15.00;2.30;;;;;;;6.14;53.31;102868.50;5055187;28;20040;-69
2022/02/11 14:04:09;;;;;;;16.23;2.58;;;;;;;6.12;52.15;102880.63;5029607;28;20032;-67
2022/02/11 14:06:46;;;;;;;14.07;1.92;;;;;;;6.14;52.83;102877.09;5064581;28;20078;-67
2022/02/11 14:09:26;;;;;;;16.73;2.03;;;;;;;6.06;52.51;102886.09;5054454;28;20539;-69
2022/02/11 14:11:51;;;;;;;14.00;2.70;;;;;;;6.11;53.69;102886.72;5063078;28;20037;-69
2022/02/11 14:14:17;;;;;;;14.93;1.70;;;;;;;6.04;53.95;102894.72;5043376;28;20063;-69
2022/02/11 14:16:48;;;;;;;11.85;1.83;;;;;;;6.08;53.86;102899.72;5046659;28;20081;-68
2022/02/11 14:19:18;;;;;;;10.70;1.90;;;;;;;5.94;53.01;102910.69;5064615;28;20148;-69
2022/02/11 14:21:44;;;;;;;21.52;3.67;;;;;;;5.83;53.41;102913.75;5064412;28;20449;-69
2022/02/11 14:24:09;;;;;;;10.25;1.63;;;;;;;5.83;53.39;102918.91;5056614;28;20036;-68
2022/02/11 14:26:36;;;;;;;9.98;2.30;;;;;;;5.78;52.16;102923.44;5063479;28;20033;-69
2022/02/11 14:29:03;;;;;;;6.13;1.75;;;;;;;5.75;50.03;102921.84;5031606;28;20028;-69
2022/02/11 14:31:29;;;;;;;11.73;1.85;;;;;;;5.62;51.18;102921.59;5063097;28;20024;-69
2022/02/11 14:33:55;;;;;;;6.93;1.17;;;;;;;5.51;52.40;102930.72;5060803;28;20741;-69
2022/02/11 14:36:20;;;;;;;15.43;2.00;;;;;;;5.40;50.77;102926.06;5029466;28;20028;-69
2022/02/11 14:38:46;;;;;;;11.30;1.40;;;;;;;5.31;51.41;102934.19;5045150;28;20130;-69
2022/02/11 14:43:55;;;;;;;6.00;1.33;;;;;;;5.46;52.45;102934.34;5057414;28;20025;-69
2022/02/11 14:46:21;;;;;;;8.32;1.75;;;;;;;5.53;51.82;102939.22;5059428;28;20551;-69
2022/02/11 14:48:47;;;;;;;12.65;1.33;;;;;;;5.66;52.54;102937.72;5067827;28;20027;-69
2022/02/11 14:51:12;;;;;;;11.93;1.55;;;;;;;5.75;50.94;102934.72;5034860;28;20045;-69
2022/02/11 14:53:38;;;;;;;11.48;1.77;;;;;;;5.71;52.49;102935.78;5049230;28;20089;-69
2022/02/11 14:56:05;;;;;;;7.93;1.40;;;;;;;5.73;52.17;102943.44;5047026;28;20074;-69
2022/02/11 14:58:30;;;;;;;14.30;1.80;;;;;;;5.64;50.45;102947.28;5042834;28;20056;-69
2022/02/11 15:00:56;;;;;;;14.52;1.85;;;;;;;5.71;52.05;102940.09;5043833;28;20044;-69
2022/02/11 15:03:21;;;;;;;9.32;2.53;;;;;;;5.99;52.09;102949.94;5060707;28;20026;-69